Time;durP1;ratioP1;P1;durP2;ratioP2;P2;SDS_P1;SDS_P2;PMS_P1;PMS_P2;Temp;Humidity;BMP_temperature;BMP_pressure;BME280_temperature;BME280_humidity;BME280_pressure;Samples;Min_cycle;Max_cycle;Signal;HPM_P1;HPM_P2
2022/06/23 00:00:28;;;;;;;8.52;7.43;;;23.60;97.00;;;;;;6232336;28;85146;-66
2022/06/23 00:03:34;;;;;;;7.88;7.15;;;23.60;97.10;;;;;;6236157;28;83980;-66
2022/06/23 00:06:43;;;;;;;7.78;7.07;;;23.60;97.10;;;;;;6233614;28;84272;-66
2022/06/23 00:09:49;;;;;;;7.68;6.97;;;23.60;97.20;;;;;;6236155;28;84340;-66
2022/06/23 00:12:52;;;;;;;7.72;7.03;;;23.60;97.10;;;;;;6222320;28;83192;-66
2022/06/23 00:15:56;;;;;;;8.02;7.32;;;23.60;97.10;;;;;;6224453;28;84122;-66
2022/06/23 00:18:59;;;;;;;8.82;7.93;;;23.60;97.00;;;;;;6236464;28;84136;-66
2022/06/23 00:22:02;;;;;;;8.55;7.70;;;23.60;97.00;;;;;;6237635;28;83554;-66
2022/06/23 00:25:07;;;;;;;7.95;7.25;;;23.60;97.00;;;;;;6237160;28;83101;-67
2022/06/23 00:28:20;;;;;;;8.07;7.38;;;23.60;97.00;;;;;;6222818;28;84032;-66
2022/06/23 00:31:26;;;;;;;8.57;7.78;;;23.60;97.00;;;;;;6233157;28;85002;-67
2022/06/23 00:34:34;;;;;;;8.52;7.28;;;23.60;97.00;;;;;;6235307;28;84165;-67
2022/06/23 00:37:38;;;;;;;8.30;7.57;;;23.60;97.00;;;;;;6228162;28;84330;-66
2022/06/23 00:40:43;;;;;;;7.97;7.20;;;23.60;97.00;;;;;;6229131;28;83732;-66
2022/06/23 00:43:48;;;;;;;7.88;7.07;;;23.60;97.00;;;;;;6223097;28;82959;-66
2022/06/23 00:46:53;;;;;;;8.18;7.38;;;23.60;97.10;;;;;;6226021;28;83996;-67
2022/06/23 00:50:01;;;;;;;8.35;7.55;;;23.60;97.20;;;;;;6226422;28;84067;-66
2022/06/23 00:53:16;;;;;;;8.45;7.65;;;23.60;97.20;;;;;;6236107;28;82458;-66
2022/06/23 00:56:32;;;;;;;8.40;7.60;;;23.60;97.20;;;;;;6220090;28;84088;-66
2022/06/23 00:59:38;;;;;;;8.90;8.10;;;23.60;97.20;;;;;;6235548;28;83974;-67
2022/06/23 01:02:46;;;;;;;8.20;7.40;;;23.60;97.20;;;;;;6231219;28;84838;-66
2022/06/23 01:05:54;;;;;;;8.45;7.50;;;23.60;97.10;;;;;;6210816;28;84022;-66
2022/06/23 01:09:03;;;;;;;8.40;7.60;;;23.60;97.10;;;;;;6235767;28;84076;-66
2022/06/23 01:12:16;;;;;;;8.57;7.78;;;23.60;97.10;;;;;;6236202;28;84388;-66
2022/06/23 01:15:27;;;;;;;8.68;7.88;;;23.60;97.10;;;;;;6219026;28;84087;-66
2022/06/23 01:18:35;;;;;;;8.48;7.70;;;23.60;97.10;;;;;;6235375;28;84024;-66
2022/06/23 01:21:42;;;;;;;8.88;7.97;;;23.60;97.10;;;;;;6220390;28;82986;-66
2022/06/23 01:24:54;;;;;;;8.93;8.02;;;23.70;97.20;;;;;;6225042;28;83368;-66
2022/06/23 01:28:12;;;;;;;8.80;8.00;;;23.60;97.20;;;;;;6232286;28;84161;-66
2022/06/23 01:31:18;;;;;;;8.27;7.47;;;23.60;97.20;;;;;;6233996;28;84081;-67
2022/06/23 01:34:28;;;;;;;8.95;8.07;;;23.60;97.30;;;;;;6223373;28;85017;-67
2022/06/23 01:37:36;;;;;;;8.25;7.45;;;23.60;97.30;;;;;;6230748;28;84080;-66
2022/06/23 01:40:44;;;;;;;8.32;7.63;;;23.60;97.30;;;;;;6232792;28;84143;-66
2022/06/23 01:43:58;;;;;;;8.63;7.82;;;23.60;97.30;;;;;;6235103;28;82976;-66
2022/06/23 01:47:02;;;;;;;8.75;7.85;;;23.60;97.30;;;;;;6231415;28;84112;-67
2022/06/23 01:50:40;;;;;;;8.18;7.38;;;23.60;97.30;;;;;;6220787;28;84097;-66
2022/06/23 01:53:42;;;;;;;7.63;6.95;;;23.60;97.20;;;;;;6230954;28;82963;-66
2022/06/23 01:57:00;;;;;;;8.60;7.80;;;23.70;97.20;;;;;;6234905;28;82284;-66
2022/06/23 02:00:13;;;;;;;8.00;7.20;;;23.60;97.10;;;;;;6233784;28;84428;-66
2022/06/23 02:03:22;;;;;;;8.77;7.88;;;23.60;97.10;;;;;;6221147;28;84439;-66
2022/06/23 02:06:29;;;;;;;8.70;7.80;;;23.60;97.10;;;;;;6233826;28;85026;-67
2022/06/23 02:09:38;;;;;;;8.45;7.75;;;23.60;97.00;;;;;;6234477;28;84274;-66
2022/06/23 02:12:48;;;;;;;8.63;7.82;;;23.60;97.00;;;;;;6234361;28;84055;-66
2022/06/23 02:16:01;;;;;;;8.30;7.50;;;23.60;97.10;;;;;;6233845;28;84309;-66
2022/06/23 02:19:15;;;;;;;8.93;8.02;;;23.60;97.10;;;;;;6233708;28;84050;-66
2022/06/23 02:22:24;;;;;;;9.25;8.07;;;23.60;97.20;;;;;;6234110;28;84103;-66
2022/06/23 02:25:33;;;;;;;8.73;7.93;;;23.60;97.20;;;;;;6232987;28;82945;-66
2022/06/23 02:28:41;;;;;;;8.35;7.55;;;23.60;97.20;;;;;;6234104;28;83589;-66
2022/06/23 02:31:53;;;;;;;8.18;7.45;;;23.60;97.60;;;;;;6227910;28;84520;-66
2022/06/23 02:35:02;;;;;;;8.20;7.40;;;23.60;97.20;;;;;;6227589;28;82879;-66
2022/06/23 02:38:10;;;;;;;7.82;7.10;;;23.60;97.20;;;;;;6222086;28;84995;-67
2022/06/23 02:41:16;;;;;;;8.88;7.97;;;23.60;97.10;;;;;;6232732;28;83995;-67
2022/06/23 02:44:38;;;;;;;8.18;7.35;;;23.60;97.10;;;;;;6233010;28;84007;-66
2022/06/23 02:48:00;;;;;;;8.50;7.70;;;23.60;97.10;;;;;;6230671;28;83853;-67
2022/06/23 02:51:17;;;;;;;8.85;8.02;;;23.70;97.10;;;;;;6233523;28;82752;-66
2022/06/23 02:54:41;;;;;;;8.88;7.97;;;23.60;97.10;;;;;;6237578;28;83716;-66
2022/06/23 02:57:49;;;;;;;8.15;7.35;;;23.70;97.10;;;;;;6218749;28;84167;-66
2022/06/23 03:00:57;;;;;;;8.20;7.40;;;23.60;97.10;;;;;;6230344;28;83290;-66
2022/06/23 03:04:05;;;;;;;8.07;7.30;;;23.60;97.10;;;;;;6235420;28;84124;-66
2022/06/23 03:07:12;;;;;;;8.50;7.68;;;23.70;97.20;;;;;;6237064;28;84078;-66
2022/06/23 03:10:20;;;;;;;8.50;7.60;;;23.70;97.20;;;;;;6236900;28;85063;-66
2022/06/23 03:13:29;;;;;;;8.63;7.80;;;23.60;97.20;;;;;;6226001;28;84104;-66
2022/06/23 03:16:34;;;;;;;8.13;7.43;;;23.70;97.30;;;;;;6225755;28;83990;-66
2022/06/23 03:19:43;;;;;;;8.25;7.47;;;23.60;97.30;;;;;;6235783;28;84081;-67
2022/06/23 03:22:50;;;;;;;8.60;7.70;;;23.60;97.30;;;;;;6236527;28;83942;-66
2022/06/23 03:25:58;;;;;;;8.60;7.82;;;23.60;97.30;;;;;;6236949;28;84050;-66
2022/06/23 03:29:10;;;;;;;8.50;7.70;;;23.60;97.20;;;;;;6222601;28;89065;-66
2022/06/23 03:32:20;;;;;;;8.40;7.68;;;23.60;97.20;;;;;;6225662;28;88771;-66
2022/06/23 03:35:29;;;;;;;9.13;8.23;;;23.60;97.10;;;;;;6213010;28;89449;-66
2022/06/23 03:42:06;;;;;;;8.40;7.60;;;23.60;97.10;;;;;;6224134;28;88876;-66
2022/06/23 03:45:19;;;;;;;9.57;8.57;;;23.70;97.10;;;;;;6232025;28;89091;-66
2022/06/23 03:48:26;;;;;;;9.07;8.18;;;23.70;97.10;;;;;;6230719;28;89045;-66
2022/06/23 03:51:33;;;;;;;9.18;8.27;;;23.70;97.10;;;;;;6231546;28;89015;-66
2022/06/23 03:54:44;;;;;;;9.00;8.10;;;23.70;97.20;;;;;;6234442;28;89418;-66
2022/06/23 03:57:53;;;;;;;9.00;8.10;;;23.60;97.10;;;;;;6231419;28;89097;-66
2022/06/23 04:01:03;;;;;;;8.77;7.97;;;23.60;97.20;;;;;;6228950;28;89013;-66
2022/06/23 04:04:15;;;;;;;8.77;7.88;;;23.70;97.20;;;;;;6225713;28;88357;-66
2022/06/23 04:07:44;;;;;;;9.35;8.45;;;23.70;97.20;;;;;;6219874;28;89283;-66
2022/06/23 04:10:46;;;;;;;9.48;8.63;;;23.70;97.20;;;;;;6219606;28;89012;-67
2022/06/23 04:13:49;;;;;;;9.13;8.23;;;23.70;97.20;;;;;;6229921;28;90022;-66
2022/06/23 04:16:56;;;;;;;9.75;8.75;;;23.70;97.10;;;;;;6232974;28;89109;-67
2022/06/23 04:20:02;;;;;;;9.40;8.50;;;23.70;97.10;;;;;;6219763;28;89390;-66
2022/06/23 04:23:13;;;;;;;8.93;8.13;;;23.70;97.10;;;;;;6231633;28;88747;-66
2022/06/23 04:26:18;;;;;;;9.45;8.55;;;23.70;97.10;;;;;;6233973;28;87852;-67
2022/06/23 04:29:25;;;;;;;9.20;8.30;;;23.60;97.10;;;;;;6221449;28;89133;-66
2022/06/23 04:32:31;;;;;;;9.85;8.95;;;23.70;97.00;;;;;;6232292;28;89436;-66
2022/06/23 04:35:36;;;;;;;10.00;9.10;;;23.70;97.00;;;;;;6232856;28;87327;-66
2022/06/23 04:38:43;;;;;;;9.30;8.45;;;23.70;97.00;;;;;;6226366;28;89078;-66
2022/06/23 04:41:49;;;;;;;10.30;9.30;;;23.70;97.00;;;;;;6231751;28;88985;-66
2022/06/23 04:44:54;;;;;;;10.10;9.10;;;23.70;97.10;;;;;;6231390;28;90000;-66
2022/06/23 04:47:59;;;;;;;9.15;8.35;;;23.70;97.10;;;;;;6229697;28;89063;-66
2022/06/23 04:51:05;;;;;;;9.05;8.25;;;23.70;97.20;;;;;;6232417;28;89037;-66
2022/06/23 04:54:17;;;;;;;9.73;8.82;;;23.70;97.20;;;;;;6231566;28;89163;-66
2022/06/23 04:57:24;;;;;;;9.95;8.93;;;23.70;97.20;;;;;;6232239;28;89047;-66
2022/06/23 05:00:37;;;;;;;10.10;9.10;;;23.70;97.20;;;;;;6232203;28;88697;-66
2022/06/23 05:03:47;;;;;;;10.55;9.45;;;23.70;97.10;;;;;;6232184;28;89106;-66
2022/06/23 05:06:53;;;;;;;10.27;9.27;;;23.70;97.10;;;;;;6219631;28;88851;-66
2022/06/23 05:10:01;;;;;;;9.43;8.52;;;23.70;97.00;;;;;;6221006;28;89039;-66
2022/06/23 05:13:06;;;;;;;10.00;9.00;;;23.70;97.00;;;;;;6220662;28;89098;-66
2022/06/23 05:16:10;;;;;;;9.52;8.65;;;23.60;97.00;;;;;;6229630;28;90021;-66
2022/06/23 05:19:21;;;;;;;9.90;9.00;;;23.70;97.10;;;;;;6210660;28;87942;-66
2022/06/23 05:22:28;;;;;;;10.02;9.02;;;23.70;97.10;;;;;;6228983;28;89035;-66
2022/06/23 05:25:43;;;;;;;10.30;8.85;;;23.70;97.20;;;;;;6230677;28;89403;-67
2022/06/23 05:28:45;;;;;;;10.13;9.13;;;23.70;97.20;;;;;;6218829;28;88759;-66
2022/06/23 05:31:49;;;;;;;10.30;9.30;;;23.70;97.20;;;;;;6225444;28;89075;-67
2022/06/23 05:34:59;;;;;;;10.30;9.30;;;23.70;97.20;;;;;;6223959;28;88627;-66
2022/06/23 05:38:04;;;;;;;10.05;9.13;;;23.60;97.20;;;;;;6229704;28;88438;-66
2022/06/23 05:41:14;;;;;;;10.40;9.32;;;23.70;97.30;;;;;;6231227;28;89003;-67
2022/06/23 05:44:20;;;;;;;9.95;9.05;;;23.70;97.40;;;;;;6221517;28;89052;-67
2022/06/23 05:47:23;;;;;;;10.20;9.30;;;23.70;97.30;;;;;;6227565;28;89961;-67
2022/06/23 05:50:32;;;;;;;10.50;9.50;;;23.70;97.30;;;;;;6231974;28;88087;-67
2022/06/23 05:53:39;;;;;;;9.77;8.80;;;23.70;97.20;;;;;;6231015;28;89103;-66
2022/06/23 05:56:51;;;;;;;10.82;9.43;;;23.70;97.20;;;;;;6231116;28;87933;-66
2022/06/23 06:00:01;;;;;;;10.80;9.70;;;23.70;97.20;;;;;;6220081;28;89099;-67
2022/06/23 06:03:11;;;;;;;10.18;9.23;;;23.70;97.10;;;;;;6229247;28;89114;-66
2022/06/23 06:06:13;;;;;;;10.85;9.80;;;23.70;97.10;;;;;;6230569;28;89107;-67
2022/06/23 06:09:37;;;;;;;10.38;9.38;;;23.70;97.20;;;;;;6223897;28;88964;-67
2022/06/23 06:12:43;;;;;;;10.18;9.18;;;23.70;97.10;;;;;;6228546;28;89196;-67
2022/06/23 06:15:49;;;;;;;10.73;9.73;;;23.70;97.20;;;;;;6230340;28;89014;-66
2022/06/23 06:18:51;;;;;;;10.73;9.73;;;23.60;97.30;;;;;;6229825;28;89949;-66
2022/06/23 06:21:57;;;;;;;10.48;9.48;;;23.70;97.30;;;;;;6230816;28;89204;-67
2022/06/23 06:25:01;;;;;;;10.38;9.35;;;23.70;97.40;;;;;;6216886;28;89295;-67
2022/06/23 06:28:15;;;;;;;10.35;9.38;;;23.70;97.40;;;;;;6230395;28;89151;-66
2022/06/23 06:31:22;;;;;;;10.38;9.38;;;23.70;97.40;;;;;;6230622;28;89122;-67
2022/06/23 06:34:31;;;;;;;10.30;9.30;;;23.70;97.40;;;;;;6227843;28;88352;-67
2022/06/23 06:37:36;;;;;;;10.88;9.77;;;23.70;97.30;;;;;;6220142;28;89104;-66
2022/06/23 06:40:40;;;;;;;10.77;9.75;;;23.70;97.20;;;;;;6231274;28;88300;-66
2022/06/23 06:43:43;;;;;;;10.15;9.15;;;23.70;97.20;;;;;;6228370;28;89042;-66
2022/06/23 06:46:46;;;;;;;10.68;9.68;;;23.70;97.20;;;;;;6221053;28;89054;-66
2022/06/23 06:49:48;;;;;;;10.63;9.63;;;23.70;97.10;;;;;;6213842;28;90414;-67
2022/06/23 06:52:51;;;;;;;10.32;9.32;;;23.70;97.20;;;;;;6230773;28;89088;-66
2022/06/23 06:55:57;;;;;;;10.32;9.32;;;23.70;97.10;;;;;;6230067;28;88912;-66
2022/06/23 06:59:06;;;;;;;10.70;9.65;;;23.70;97.10;;;;;;6226510;28;89060;-66
2022/06/23 07:02:15;;;;;;;10.82;9.82;;;23.70;97.20;;;;;;6221656;28;88579;-66
2022/06/23 07:05:24;;;;;;;10.20;9.20;;;23.70;97.20;;;;;;6229118;28;89025;-66
2022/06/23 07:08:33;;;;;;;10.50;9.50;;;23.70;97.20;;;;;;6219637;28;89054;-66
2022/06/23 07:11:42;;;;;;;10.02;9.13;;;23.70;97.30;;;;;;6219850;28;88467;-66
2022/06/23 07:14:53;;;;;;;10.48;9.48;;;23.70;97.30;;;;;;6226542;28;88031;-66
2022/06/23 07:18:02;;;;;;;10.30;9.30;;;23.70;97.30;;;;;;6219128;28;89821;-66
2022/06/23 07:21:10;;;;;;;9.77;8.88;;;23.70;97.20;;;;;;6227972;28;90450;-67
2022/06/23 07:24:18;;;;;;;9.88;8.98;;;23.70;97.20;;;;;;6229235;28;89003;-66
2022/06/23 07:27:26;;;;;;;10.23;9.27;;;23.70;97.10;;;;;;6228510;28;89090;-66
2022/06/23 07:30:35;;;;;;;10.02;9.13;;;23.70;97.20;;;;;;6229233;28;89140;-66
2022/06/23 07:33:43;;;;;;;10.43;9.48;;;23.70;97.20;;;;;;6228853;28;89396;-66
2022/06/23 07:36:50;;;;;;;9.98;8.98;;;23.70;97.20;;;;;;6228195;28;89162;-66
2022/06/23 07:40:03;;;;;;;9.88;8.98;;;23.70;97.10;;;;;;6232179;28;89417;-66
2022/06/23 07:43:12;;;;;;;10.45;9.45;;;23.70;97.10;;;;;;6232118;28;88308;-66
2022/06/23 07:46:15;;;;;;;9.98;9.07;;;23.70;97.10;;;;;;6230975;28;89303;-66
2022/06/23 07:49:17;;;;;;;10.05;9.05;;;23.70;97.10;;;;;;6233204;28;89175;-66
2022/06/23 07:52:21;;;;;;;9.43;8.52;;;23.80;97.10;;;;;;6232807;28;89944;-66
2022/06/23 07:55:40;;;;;;;9.80;8.90;;;23.70;97.10;;;;;;6233758;28;89075;-66
2022/06/23 07:58:42;;;;;;;9.68;8.77;;;23.70;97.20;;;;;;6221810;28;89214;-66
2022/06/23 08:01:52;;;;;;;9.70;8.80;;;23.80;97.30;;;;;;6220809;28;89407;-66
2022/06/23 08:05:00;;;;;;;9.63;8.73;;;23.80;97.30;;;;;;6232340;28;88969;-67
2022/06/23 08:08:03;;;;;;;10.23;9.32;;;23.80;97.10;;;;;;6233228;28;89098;-66
2022/06/23 08:14:32;;;;;;;9.50;8.63;;;23.80;97.10;;;;;;6232503;28;86768;-66
2022/06/23 08:17:34;;;;;;;9.25;8.38;;;23.80;97.10;;;;;;6233224;28;89166;-66
2022/06/23 08:20:43;;;;;;;10.60;9.55;;;23.80;97.20;;;;;;6232938;28;89341;-66
2022/06/23 08:23:54;;;;;;;9.77;8.88;;;23.80;97.20;;;;;;6230148;28;89992;-66
2022/06/23 08:26:59;;;;;;;9.27;8.48;;;23.80;97.30;;;;;;6227608;28;88453;-66
2022/06/23 08:30:05;;;;;;;9.85;8.85;;;23.70;97.20;;;;;;6215090;28;89061;-66
2022/06/23 08:33:09;;;;;;;9.88;8.98;;;23.70;97.30;;;;;;6232082;28;89239;-66
2022/06/23 08:36:15;;;;;;;9.57;8.57;;;23.70;97.30;;;;;;6230914;28;88982;-66
2022/06/23 08:39:22;;;;;;;9.48;8.57;;;23.80;97.30;;;;;;6233281;28;89108;-66
2022/06/23 08:42:31;;;;;;;9.95;8.95;;;23.80;97.30;;;;;;6233969;28;89019;-66
2022/06/23 08:45:40;;;;;;;9.43;8.52;;;23.80;97.30;;;;;;6231187;28;88345;-66
2022/06/23 08:48:47;;;;;;;9.70;8.73;;;23.80;97.40;;;;;;6232330;28;89020;-66
2022/06/23 08:51:57;;;;;;;9.48;8.50;;;23.80;97.40;;;;;;6231514;28;89039;-66
2022/06/23 08:55:05;;;;;;;9.18;8.38;;;23.80;97.40;;;;;;6232468;28;90025;-66
2022/06/23 08:58:14;;;;;;;9.50;8.60;;;23.80;97.20;;;;;;6231933;28;87985;-66
2022/06/23 09:01:21;;;;;;;9.18;8.27;;;23.80;97.20;;;;;;6220234;28;89076;-66
2022/06/23 09:04:32;;;;;;;9.63;8.73;;;23.80;97.30;;;;;;6232114;28;89025;-66
2022/06/23 09:07:45;;;;;;;9.10;8.30;;;23.80;97.20;;;;;;6231161;28;89177;-66
2022/06/23 09:10:57;;;;;;;9.60;8.70;;;23.80;97.20;;;;;;6229548;28;89033;-66
2022/06/23 09:14:28;;;;;;;9.10;8.30;;;23.80;97.30;;;;;;6231159;28;89278;-66
2022/06/23 09:17:57;;;;;;;9.48;8.57;;;23.80;97.30;;;;;;6231753;28;88294;-66
2022/06/23 09:21:23;;;;;;;8.80;8.00;;;23.80;97.40;;;;;;6229961;28;89169;-66
2022/06/23 09:24:58;;;;;;;9.45;8.55;;;23.80;97.40;;;;;;6231694;28;89191;-66
2022/06/23 09:28:14;;;;;;;9.43;8.50;;;23.80;97.50;;;;;;6222135;28;90058;-66
2022/06/23 09:31:22;;;;;;;9.65;8.65;;;23.80;97.60;;;;;;6218365;28;89261;-66
2022/06/23 09:34:40;;;;;;;9.05;8.25;;;23.80;97.60;;;;;;6218673;28;89192;-66
2022/06/23 09:38:09;;;;;;;8.82;8.02;;;23.80;97.60;;;;;;6221248;28;89034;-66
2022/06/23 09:41:28;;;;;;;9.05;8.15;;;23.80;97.60;;;;;;6231193;28;89561;-66
2022/06/23 09:44:51;;;;;;;8.80;8.00;;;23.80;97.50;;;;;;6229897;28;89295;-66
2022/06/23 09:48:12;;;;;;;9.30;8.40;;;23.90;97.40;;;;;;6228355;28;89121;-66
2022/06/23 09:51:45;;;;;;;8.88;7.97;;;23.90;97.40;;;;;;6226548;28;88335;-66
2022/06/23 09:55:31;;;;;;;8.98;8.18;;;23.80;97.40;;;;;;6228322;28;87957;-66
2022/06/23 09:58:48;;;;;;;8.60;7.80;;;23.90;97.40;;;;;;6219752;28;89325;-66
2022/06/23 10:01:57;;;;;;;8.82;8.02;;;23.90;97.40;;;;;;6218246;28;89971;-66
2022/06/23 10:05:28;;;;;;;8.90;8.10;;;23.90;97.40;;;;;;6216939;28;88923;-66
2022/06/23 10:08:48;;;;;;;9.35;8.45;;;23.80;97.70;;;;;;6218324;28;89114;-66
2022/06/23 10:12:13;;;;;;;9.25;8.35;;;23.90;97.40;;;;;;6220833;28;89059;-66
2022/06/23 10:15:45;;;;;;;8.98;8.15;;;23.90;97.60;;;;;;6218807;28;89041;-66
2022/06/23 10:19:15;;;;;;;8.95;8.15;;;23.90;97.60;;;;;;6229297;27;89071;-66
2022/06/23 10:22:32;;;;;;;8.50;7.75;;;23.90;97.70;;;;;;6217609;28;89594;-66
2022/06/23 10:25:54;;;;;;;8.15;7.43;;;23.90;97.70;;;;;;6221322;28;88165;-67
2022/06/23 10:29:08;;;;;;;8.15;7.35;;;23.90;97.70;;;;;;6207021;28;88986;-66
2022/06/23 10:32:36;;;;;;;8.38;7.57;;;23.90;97.50;;;;;;6228702;28;89129;-67
2022/06/23 10:35:53;;;;;;;8.38;7.65;;;23.90;97.40;;;;;;6219183;28;89903;-66
2022/06/23 10:39:05;;;;;;;8.68;7.88;;;23.90;97.40;;;;;;6230676;28;89075;-66
2022/06/23 10:42:37;;;;;;;8.18;7.38;;;23.90;97.50;;;;;;6228346;28;89079;-66
2022/06/23 10:45:44;;;;;;;8.23;7.53;;;23.90;97.50;;;;;;6229425;28;87959;-66
2022/06/23 10:49:03;;;;;;;8.57;7.78;;;23.90;97.50;;;;;;6219738;28;90291;-66
2022/06/23 10:52:37;;;;;;;8.55;7.75;;;23.90;97.60;;;;;;6219674;28;89368;-66
2022/06/23 10:55:53;;;;;;;8.80;8.00;;;23.90;97.60;;;;;;6207729;28;89106;-66
2022/06/23 10:59:11;;;;;;;8.38;7.57;;;23.90;97.70;;;;;;6230255;28;88289;-66
2022/06/23 11:02:45;;;;;;;8.30;7.50;;;23.90;97.80;;;;;;6216930;28;89402;-66
2022/06/23 11:06:10;;;;;;;8.25;7.45;;;23.90;98.00;;;;;;6221986;28;87913;-66
2022/06/23 11:09:26;;;;;;;8.30;7.50;;;23.90;98.10;;;;;;6227949;28;90102;-66
2022/06/23 11:12:44;;;;;;;8.30;7.50;;;23.90;98.10;;;;;;6217888;28;87992;-66
2022/06/23 11:15:55;;;;;;;7.75;7.03;;;23.90;98.40;;;;;;6234604;28;89547;-66
2022/06/23 11:19:16;;;;;;;8.10;7.40;;;23.90;98.00;;;;;;6220660;28;89154;-66
2022/06/23 11:22:38;;;;;;;8.02;7.28;;;23.90;97.80;;;;;;6222030;28;88986;-67
2022/06/23 11:25:47;;;;;;;7.70;7.00;;;23.90;97.80;;;;;;6233004;28;89005;-67
2022/06/23 11:29:09;;;;;;;8.40;7.60;;;23.90;97.80;;;;;;6227376;28;88994;-66
2022/06/23 11:32:28;;;;;;;8.75;7.93;;;23.90;97.70;;;;;;6231489;28;88285;-67
2022/06/23 11:35:41;;;;;;;8.32;7.53;;;24.00;97.80;;;;;;6233935;28;89072;-66
2022/06/23 11:39:32;;;;;;;8.25;7.45;;;23.90;97.70;;;;;;6233973;28;87980;-67
2022/06/23 11:42:56;;;;;;;7.80;7.10;;;23.90;97.80;;;;;;6174420;28;88963;-67
2022/06/23 11:46:09;;;;;;;8.18;7.47;;;23.90;98.00;;;;;;6217939;28;88834;-67
2022/06/23 11:49:37;;;;;;;8.00;7.25;;;23.90;98.10;;;;;;6221779;28;89092;-67
2022/06/23 11:53:05;;;;;;;7.88;7.18;;;23.90;98.40;;;;;;6220140;28;89426;-67
2022/06/23 11:56:16;;;;;;;8.23;7.47;;;24.00;98.50;;;;;;6233225;28;89079;-66
2022/06/23 11:59:33;;;;;;;7.97;7.18;;;23.90;98.40;;;;;;6220428;28;89183;-67
2022/06/23 12:02:46;;;;;;;7.22;6.60;;;23.90;98.40;;;;;;6233609;28;87863;-66
2022/06/23 12:05:59;;;;;;;7.70;7.00;;;23.90;98.30;;;;;;6233680;28;88459;-67
2022/06/23 12:09:08;;;;;;;7.72;7.03;;;24.00;98.20;;;;;;6233858;28;89680;-66
2022/06/23 12:12:11;;;;;;;7.82;7.13;;;23.90;98.10;;;;;;6232590;28;87970;-67
2022/06/23 12:15:17;;;;;;;7.78;7.07;;;24.00;98.10;;;;;;6231966;28;90384;-66
2022/06/23 12:18:23;;;;;;;7.35;6.65;;;24.00;98.10;;;;;;6232968;28;88978;-67
2022/06/23 12:21:41;;;;;;;7.43;6.72;;;24.00;98.10;;;;;;6220117;28;89337;-66
2022/06/23 12:25:00;;;;;;;7.72;6.93;;;24.00;98.20;;;;;;6232485;28;89130;-67
2022/06/23 12:28:14;;;;;;;7.35;6.72;;;24.00;98.10;;;;;;6230832;28;88283;-66
2022/06/23 12:31:28;;;;;;;7.63;6.93;;;24.00;98.20;;;;;;6213093;28;89335;-67
2022/06/23 12:34:39;;;;;;;7.60;6.90;;;23.90;98.20;;;;;;6232786;28;89259;-66
2022/06/23 12:37:46;;;;;;;7.40;6.80;;;23.90;98.40;;;;;;6233589;28;88235;-66
2022/06/23 12:40:53;;;;;;;7.82;7.07;;;23.90;98.60;;;;;;6232914;28;87975;-67
2022/06/23 12:44:00;;;;;;;7.18;6.57;;;24.00;98.70;;;;;;6232185;28;89119;-67
2022/06/23 12:47:07;;;;;;;8.07;6.88;;;24.00;98.60;;;;;;6225335;28;89980;-66
2022/06/23 12:50:26;;;;;;;7.53;6.82;;;24.00;98.60;;;;;;6231930;28;89045;-67
2022/06/23 12:53:49;;;;;;;7.82;7.13;;;24.00;98.40;;;;;;6232302;28;89465;-66
2022/06/23 12:57:21;;;;;;;7.28;6.57;;;24.00;98.20;;;;;;6218813;28;89412;-67
2022/06/23 13:00:41;;;;;;;7.20;6.60;;;24.00;98.20;;;;;;6208415;28;89112;-67
2022/06/23 13:03:56;;;;;;;7.35;6.65;;;24.00;98.20;;;;;;6221237;28;89102;-67
2022/06/23 13:07:07;;;;;;;7.43;6.72;;;24.00;98.20;;;;;;6221309;28;89112;-67
2022/06/23 13:10:17;;;;;;;6.90;6.30;;;24.00;98.30;;;;;;6220587;28;87306;-67
2022/06/23 13:13:23;;;;;;;6.85;6.25;;;24.00;98.30;;;;;;6220467;28;87976;-67
2022/06/23 13:16:31;;;;;;;7.30;6.60;;;24.00;98.20;;;;;;6221214;28;89041;-66
2022/06/23 13:19:39;;;;;;;6.75;6.15;;;24.00;98.30;;;;;;6228921;28;89164;-66
2022/06/23 13:22:51;;;;;;;6.75;6.15;;;24.00;98.30;;;;;;6231214;28;87953;-67
2022/06/23 13:25:56;;;;;;;7.38;6.68;;;24.00;98.50;;;;;;6231793;28;89398;-67
2022/06/23 13:29:02;;;;;;;7.55;6.85;;;24.00;98.50;;;;;;6231422;28;89063;-66
2022/06/23 13:32:15;;;;;;;8.20;6.32;;;24.00;98.50;;;;;;6231724;28;88927;-67
2022/06/23 13:35:21;;;;;;;6.78;6.18;;;24.00;98.60;;;;;;6218691;28;89111;-67
2022/06/23 13:38:34;;;;;;;6.90;6.30;;;24.00;98.60;;;;;;6231064;28;89047;-67
2022/06/23 13:41:44;;;;;;;6.82;6.22;;;24.00;98.50;;;;;;6230882;28;88349;-67
2022/06/23 13:44:57;;;;;;;6.70;6.10;;;24.10;98.40;;;;;;6230952;28;88947;-67
2022/06/23 13:48:11;;;;;;;7.43;6.63;;;24.10;98.40;;;;;;6231056;28;89104;-66
2022/06/23 13:51:19;;;;;;;7.00;6.40;;;24.10;98.30;;;;;;6228506;28;90007;-67
2022/06/23 13:54:30;;;;;;;6.82;6.22;;;24.10;98.20;;;;;;6231326;28;89235;-67
2022/06/23 13:57:35;;;;;;;6.63;6.03;;;24.10;98.20;;;;;;6218001;28;89036;-67
2022/06/23 14:00:43;;;;;;;6.38;5.78;;;24.10;98.30;;;;;;6210145;28;89024;-67
2022/06/23 14:03:51;;;;;;;6.90;6.28;;;24.00;98.30;;;;;;6227458;28;89323;-67
2022/06/23 14:07:03;;;;;;;6.50;5.90;;;24.10;98.40;;;;;;6226860;28;89069;-66
2022/06/23 14:10:12;;;;;;;6.35;5.82;;;24.00;98.40;;;;;;6218114;28;89008;-67
2022/06/23 14:13:23;;;;;;;6.03;5.53;;;24.10;98.50;;;;;;6230522;28;88278;-67
2022/06/23 14:16:31;;;;;;;6.53;5.93;;;24.10;98.50;;;;;;6231675;28;87846;-67
2022/06/23 14:19:47;;;;;;;6.57;6.00;;;24.10;98.50;;;;;;6230473;28;89080;-67
2022/06/23 14:22:55;;;;;;;5.68;5.18;;;24.00;98.50;;;;;;6228929;28;90045;-67
2022/06/23 14:26:07;;;;;;;6.50;5.90;;;24.10;98.50;;;;;;6231017;28;87998;-67
2022/06/23 14:29:16;;;;;;;6.15;5.55;;;24.00;98.40;;;;;;6220798;28;88985;-67
2022/06/23 14:32:26;;;;;;;6.60;6.00;;;24.10;98.50;;;;;;6215181;28;89411;-67
2022/06/23 14:35:37;;;;;;;6.60;6.00;;;24.10;98.60;;;;;;6223408;28;89063;-67
2022/06/23 14:38:48;;;;;;;6.35;5.75;;;24.00;98.50;;;;;;6226010;28;89005;-67
2022/06/23 14:42:05;;;;;;;6.22;5.63;;;24.10;98.50;;;;;;6230112;28;89362;-67
2022/06/23 14:45:27;;;;;;;6.25;5.65;;;24.10;98.50;;;;;;6231506;28;88247;-67
2022/06/23 14:48:59;;;;;;;5.95;5.45;;;24.00;98.40;;;;;;6225111;28;89240;-67
2022/06/23 14:52:10;;;;;;;6.20;5.60;;;24.00;98.40;;;;;;6229706;28;89404;-67
2022/06/23 14:55:21;;;;;;;5.80;5.30;;;24.10;98.40;;;;;;6229116;28;89992;-67
2022/06/23 14:58:35;;;;;;;6.35;5.85;;;24.00;98.40;;;;;;6229243;28;89395;-67
2022/06/23 15:01:51;;;;;;;6.50;5.88;;;24.10;98.50;;;;;;6216844;28;89505;-67
2022/06/23 15:04:58;;;;;;;6.28;5.72;;;24.10;98.60;;;;;;6227721;28;89222;-68
2022/06/23 15:08:06;;;;;;;5.97;5.47;;;24.10;98.60;;;;;;6229769;28;88872;-67
2022/06/23 15:11:17;;;;;;;5.55;5.10;;;24.10;98.60;;;;;;6229466;28;89317;-67
2022/06/23 15:14:24;;;;;;;6.00;5.47;;;24.10;98.60;;;;;;6229481;28;88994;-67
2022/06/23 15:17:31;;;;;;;6.10;5.60;;;24.10;98.60;;;;;;6230109;28;89165;-67
2022/06/23 15:20:41;;;;;;;5.88;5.38;;;24.10;98.60;;;;;;6226402;28;89125;-67
2022/06/23 15:23:49;;;;;;;5.80;5.30;;;24.10;98.50;;;;;;6208903;28;89459;-67
2022/06/23 15:26:58;;;;;;;5.82;5.32;;;24.10;98.50;;;;;;6228845;28;90151;-67
2022/06/23 15:30:05;;;;;;;6.00;5.45;;;24.10;98.40;;;;;;6227238;28;89040;-66
2022/06/23 15:33:13;;;;;;;6.03;5.43;;;24.10;98.40;;;;;;6228722;28;89057;-67
2022/06/23 15:36:31;;;;;;;5.88;5.38;;;24.10;98.40;;;;;;6220131;28;89146;-66
2022/06/23 15:39:40;;;;;;;5.13;4.72;;;24.10;98.30;;;;;;6229666;28;88273;-67
2022/06/23 15:42:51;;;;;;;5.72;5.15;;;24.10;98.30;;;;;;6227699;28;88913;-67
2022/06/23 15:46:03;;;;;;;5.63;5.13;;;24.10;98.40;;;;;;6225034;28;89003;-67
2022/06/23 15:49:12;;;;;;;5.40;4.90;;;24.10;98.50;;;;;;6228102;28;88870;-66
2022/06/23 15:52:22;;;;;;;5.78;5.20;;;24.10;98.50;;;;;;6229879;28;89468;-67
2022/06/23 15:55:32;;;;;;;5.70;5.20;;;24.10;98.50;;;;;;6221491;28;89164;-67
2022/06/23 15:58:43;;;;;;;5.20;4.80;;;24.10;98.50;;;;;;6226985;28;90332;-67
2022/06/23 16:01:51;;;;;;;5.70;5.20;;;24.10;98.40;;;;;;6223810;28;89117;-67
2022/06/23 16:04:59;;;;;;;5.70;5.15;;;24.10;98.40;;;;;;6227489;28;89254;-67
2022/06/23 16:08:07;;;;;;;5.57;5.07;;;24.10;98.40;;;;;;6220823;28;89013;-67
2022/06/23 16:11:13;;;;;;;4.53;4.13;;;24.10;98.30;;;;;;6233778;28;87968;-67
2022/06/23 16:14:18;;;;;;;5.50;5.00;;;24.10;98.30;;;;;;6232121;28;89083;-67
2022/06/23 16:17:24;;;;;;;5.47;4.97;;;24.10;98.30;;;;;;6220027;28;89256;-67
2022/06/23 16:20:31;;;;;;;6.03;5.13;;;24.10;98.30;;;;;;6233032;28;88655;-67
2022/06/23 16:23:45;;;;;;;5.50;5.00;;;24.10;98.30;;;;;;6231654;28;89052;-67
2022/06/23 16:26:55;;;;;;;5.32;4.85;;;24.10;98.40;;;;;;6233352;28;88120;-67
2022/06/23 16:30:02;;;;;;;5.20;4.70;;;24.20;98.40;;;;;;6232327;28;90023;-66
2022/06/23 16:33:19;;;;;;;5.00;4.60;;;24.10;98.40;;;;;;6231885;28;88965;-67
2022/06/23 16:36:29;;;;;;;5.13;4.72;;;24.10;98.40;;;;;;6232168;28;89208;-67
2022/06/23 16:39:35;;;;;;;5.28;4.78;;;24.10;98.50;;;;;;6232723;28;89298;-67